Time;durP1;ratioP1;P1;durP2;ratioP2;P2;SDS_P1;SDS_P2;PMS_P1;PMS_P2;Temp;Humidity;BMP_temperature;BMP_pressure;BME280_temperature;BME280_humidity;BME280_pressure;Samples;Min_cycle;Max_cycle;Signal;HPM_P1;HPM_P2
2022/09/17 00:01:11;;;;;;;10.93;2.40;;;;;;;14.74;60.31;101285.81;5113232;28;20134;-63
2022/09/17 00:03:39;;;;;;;5.43;1.50;;;;;;;14.73;60.63;101298.50;5125298;28;20043;-63
2022/09/17 00:06:09;;;;;;;4.82;1.40;;;;;;;14.72;60.57;101294.16;5121957;27;20048;-63
2022/09/17 00:08:38;;;;;;;5.82;1.58;;;;;;;14.72;60.48;101296.88;5122202;28;20575;-63
2022/09/17 00:11:09;;;;;;;7.95;2.00;;;;;;;14.72;60.41;101312.28;5122013;28;20047;-63
2022/09/17 00:13:37;;;;;;;8.18;1.80;;;;;;;14.69;60.68;101299.22;5118010;28;20493;-63
2022/09/17 00:16:05;;;;;;;4.47;1.58;;;;;;;14.69;60.41;101302.75;5116932;28;20059;-63
2022/09/17 00:18:35;;;;;;;5.53;1.38;;;;;;;14.68;60.63;101311.13;5120800;28;20077;-63
2022/09/17 00:21:03;;;;;;;4.95;2.17;;;;;;;14.62;60.78;101316.41;5116055;28;20048;-63
2022/09/17 00:23:31;;;;;;;6.32;2.03;;;;;;;14.68;60.99;101319.22;5113182;28;20040;-63
2022/09/17 00:25:59;;;;;;;6.88;2.15;;;;;;;14.65;60.71;101323.22;5120918;28;20047;-63
2022/09/17 00:28:28;;;;;;;9.57;1.85;;;;;;;14.66;60.82;101324.88;5119816;28;20052;-63
2022/09/17 00:30:55;;;;;;;4.20;1.50;;;;;;;14.64;60.90;101322.41;5119727;28;20043;-63
2022/09/17 00:33:23;;;;;;;8.38;2.00;;;;;;;14.65;60.75;101331.34;5122669;28;20070;-63
2022/09/17 00:35:58;;;;;;;5.10;1.40;;;;;;;14.65;60.86;101325.94;5118166;28;20062;-63
2022/09/17 00:38:26;;;;;;;12.05;1.73;;;;;;;14.65;60.78;101320.53;5116430;28;20055;-63
2022/09/17 00:40:54;;;;;;;7.78;2.03;;;;;;;14.65;60.53;101320.53;5123289;28;20047;-63
2022/09/17 00:43:41;;;;;;;7.57;2.08;;;;;;;14.64;60.59;101316.16;5120140;28;20055;-63
2022/09/17 00:46:24;;;;;;;7.63;1.75;;;;;;;14.64;60.60;101322.41;5117071;28;20047;-63
2022/09/17 00:48:53;;;;;;;4.97;1.55;;;;;;;14.63;60.47;101320.75;5116702;28;20040;-63
2022/09/17 00:51:27;;;;;;;6.35;1.80;;;;;;;14.61;60.78;101322.88;5116852;28;20057;-63
2022/09/17 00:53:55;;;;;;;7.30;1.95;;;;;;;14.58;60.87;101327.94;5122714;28;20055;-63
2022/09/17 00:56:26;;;;;;;9.00;2.40;;;;;;;14.58;60.89;101325.25;5116816;28;20054;-63
2022/09/17 00:58:56;;;;;;;4.75;1.63;;;;;;;14.58;60.88;101326.06;5115749;28;20454;-63
2022/09/17 01:01:23;;;;;;;8.73;2.67;;;;;;;14.58;61.09;101328.75;5126870;28;20374;-63
2022/09/17 01:03:51;;;;;;;6.30;1.83;;;;;;;14.58;60.70;101320.66;5115924;28;20133;-63
2022/09/17 01:06:28;;;;;;;6.55;1.60;;;;;;;14.57;60.87;101319.00;5118953;28;20054;-63
2022/09/17 01:09:03;;;;;;;;;;;;;;;14.59;60.92;101330.41;5124873;27;20040;-64
2022/09/17 01:11:50;;;;;;;7.18;2.40;;;;;;;14.57;60.68;101324.41;5115574;27;19927;-63
2022/09/17 01:14:38;;;;;;;10.30;2.00;;;;;;;14.58;60.63;101330.66;5117340;27;20396;-63
2022/09/17 01:17:18;;;;;;;7.22;1.98;;;;;;;14.58;60.98;101330.66;5122459;28;20154;-63
2022/09/17 01:20:30;;;;;;;9.85;2.53;;;;;;;14.56;61.05;101333.59;5120594;27;20059;-63
2022/09/17 01:23:26;;;;;;;13.20;2.15;;;;;;;14.55;60.95;101341.94;5115919;28;20051;-63
2022/09/17 01:26:11;;;;;;;7.78;2.10;;;;;;;14.54;61.00;101338.41;5117533;28;20044;-65
2022/09/17 01:28:46;;;;;;;7.72;2.35;;;;;;;14.54;60.85;101334.88;5114856;27;20058;-63
2022/09/17 01:31:34;;;;;;;4.53;2.05;;;;;;;14.53;60.86;101336.75;5109098;28;20065;-63
2022/09/17 01:34:13;;;;;;;7.25;2.17;;;;;;;14.51;60.70;101338.88;5117020;27;20051;-64
2022/09/17 01:36:52;;;;;;;9.15;2.08;;;;;;;14.52;60.70;101339.72;5122635;27;20078;-63
2022/09/17 01:39:31;;;;;;;7.20;2.05;;;;;;;14.48;61.08;101344.75;5120068;27;20043;-63
2022/09/17 01:42:11;;;;;;;9.73;1.83;;;;;;;14.46;61.16;101351.47;5113567;28;20058;-63
2022/09/17 01:44:46;;;;;;;8.48;2.50;;;;;;;14.45;61.21;101356.06;5122622;27;20044;-63
2022/09/17 01:47:20;;;;;;;8.13;2.15;;;;;;;14.45;61.50;101349.81;5125603;28;20043;-64
2022/09/17 01:49:51;;;;;;;7.85;2.08;;;;;;;14.43;61.20;101360.88;5123336;27;20048;-63
2022/09/17 01:52:20;;;;;;;11.60;1.77;;;;;;;14.45;61.36;101358.75;5124159;28;20423;-64
2022/09/17 01:54:53;;;;;;;5.38;1.95;;;;;;;14.45;61.20;101352.53;5112367;28;20054;-63
2022/09/17 01:57:26;;;;;;;6.55;1.73;;;;;;;14.44;61.65;101353.59;5120970;28;20050;-63
2022/09/17 01:59:59;;;;;;;8.82;2.25;;;;;;;14.44;61.63;101350.88;5120510;27;20063;-63
2022/09/17 02:02:32;;;;;;;13.45;2.35;;;;;;;14.44;61.21;101359.00;5119645;28;20044;-63
2022/09/17 02:05:05;;;;;;;5.07;1.75;;;;;;;14.43;61.24;101352.75;5114503;28;20044;-63
2022/09/17 02:07:41;;;;;;;8.88;2.50;;;;;;;14.43;61.19;101360.03;5118356;28;20082;-63
2022/09/17 02:10:12;;;;;;;5.25;2.33;;;;;;;14.41;61.56;101349.44;5121635;27;20057;-63
2022/09/17 02:12:45;;;;;;;8.65;2.67;;;;;;;14.41;61.60;101357.53;5120589;27;20066;-63
2022/09/17 02:15:19;;;;;;;7.72;2.10;;;;;;;14.41;61.49;101359.44;5121336;28;20051;-63
2022/09/17 02:17:53;;;;;;;8.38;2.38;;;;;;;14.42;61.34;101355.69;5125281;28;20043;-63
2022/09/17 02:20:29;;;;;;;8.25;1.80;;;;;;;14.41;61.56;101348.59;5119384;27;20043;-63
2022/09/17 02:23:02;;;;;;;7.35;1.58;;;;;;;14.41;61.68;101356.72;5118284;28;20053;-63
2022/09/17 02:25:36;;;;;;;6.57;1.65;;;;;;;14.41;61.60;101352.13;5119652;27;20058;-63
2022/09/17 02:28:13;;;;;;;7.93;2.17;;;;;;;14.41;61.63;101351.31;5121622;28;20052;-63
2022/09/17 02:30:41;;;;;;;8.00;1.48;;;;;;;14.42;61.49;101355.69;5120159;28;20495;-63
2022/09/17 02:33:13;;;;;;;7.05;3.10;;;;;;;14.42;61.70;101355.69;5114077;28;20063;-64
2022/09/17 02:35:42;;;;;;;6.97;2.15;;;;;;;14.42;61.30;101353.00;5125042;27;20055;-63
2022/09/17 02:38:10;;;;;;;7.63;1.73;;;;;;;14.35;61.21;101347.66;5115955;27;20040;-63
2022/09/17 02:40:47;;;;;;;8.02;1.92;;;;;;;14.40;61.61;101368.59;5125398;28;20043;-63
2022/09/17 02:43:23;;;;;;;;;;;;;;;14.40;61.63;101361.31;5126307;28;20073;-63
2022/09/17 02:46:07;;;;;;;8.85;2.95;;;;;;;14.41;61.48;101368.38;5114852;27;19927;-63
2022/09/17 02:49:04;;;;;;;7.78;2.20;;;;;;;14.39;61.35;101369.66;5121069;28;20040;-63
2022/09/17 02:51:41;;;;;;;5.72;1.92;;;;;;;14.38;61.62;101371.53;5125206;28;20043;-64
2022/09/17 02:54:22;;;;;;;7.63;1.67;;;;;;;14.39;61.32;101372.34;5115934;28;20066;-63
2022/09/17 02:57:01;;;;;;;5.85;1.90;;;;;;;14.38;61.56;101370.72;5123744;27;20040;-63
2022/09/17 02:59:34;;;;;;;5.07;1.30;;;;;;;14.34;61.66;101365.78;5121392;27;20054;-63
2022/09/17 03:02:08;;;;;;;8.48;2.28;;;;;;;14.38;61.35;101368.84;5119475;27;20047;-63
2022/09/17 03:04:41;;;;;;;7.60;1.58;;;;;;;14.38;61.48;101378.81;5121283;28;20063;-63
2022/09/17 03:07:11;;;;;;;10.93;2.08;;;;;;;14.35;61.58;101374.72;5124593;28;20115;-63
2022/09/17 03:09:39;;;;;;;5.38;1.70;;;;;;;14.32;61.63;101369.78;5115726;28;20060;-63
2022/09/17 03:12:07;;;;;;;5.55;1.58;;;;;;;14.32;61.69;101370.59;5119916;28;20054;-63
2022/09/17 03:14:35;;;;;;;5.93;1.58;;;;;;;14.32;61.74;101376.00;5120076;28;20047;-63
2022/09/17 03:17:03;;;;;;;7.28;1.55;;;;;;;14.32;61.65;101369.78;5122552;27;20050;-63
2022/09/17 03:19:31;;;;;;;6.07;1.40;;;;;;;14.33;61.54;101379.53;5114732;27;20348;-63
2022/09/17 03:22:00;;;;;;;8.20;1.55;;;;;;;14.33;61.65;101374.13;5116608;28;20055;-63
2022/09/17 03:24:28;;;;;;;5.88;1.52;;;;;;;14.33;61.40;101376.81;5121789;28;20416;-63
2022/09/17 03:26:55;;;;;;;13.55;2.42;;;;;;;14.32;61.28;101373.28;5119097;28;20057;-63
2022/09/17 03:29:23;;;;;;;8.73;2.28;;;;;;;14.32;61.58;101365.19;5121750;28;20039;-63
2022/09/17 03:31:51;;;;;;;5.85;1.40;;;;;;;14.29;61.51;101367.53;5111220;27;20043;-63
2022/09/17 03:34:19;;;;;;;7.78;2.35;;;;;;;14.30;61.23;101372.69;5112502;27;20428;-63
2022/09/17 03:36:47;;;;;;;7.82;2.03;;;;;;;14.30;61.43;101366.47;5120066;28;20048;-63
2022/09/17 03:39:16;;;;;;;8.57;1.67;;;;;;;14.30;61.11;101359.19;5122867;27;20043;-63
2022/09/17 03:41:44;;;;;;;4.85;1.48;;;;;;;14.29;61.49;101368.34;5111797;27;20051;-64
2022/09/17 03:44:11;;;;;;;9.32;1.50;;;;;;;14.29;61.31;101362.13;5110065;28;20059;-63
2022/09/17 03:46:39;;;;;;;8.57;1.80;;;;;;;14.29;61.21;101371.06;5130597;27;20048;-63
2022/09/17 03:49:07;;;;;;;4.90;1.30;;;;;;;14.27;61.26;101362.34;5113836;28;20040;-63
2022/09/17 03:51:35;;;;;;;4.97;1.30;;;;;;;14.25;61.50;101367.16;5115386;28;20480;-63
2022/09/17 03:54:03;;;;;;;9.52;1.75;;;;;;;14.25;61.36;101369.06;5124062;28;20052;-63
2022/09/17 03:56:33;;;;;;;7.22;1.80;;;;;;;14.26;61.21;101376.94;5124094;28;20044;-63
2022/09/17 03:59:01;;;;;;;5.32;1.63;;;;;;;14.25;61.17;101378.00;5118421;28;20043;-63
2022/09/17 04:01:29;;;;;;;6.60;1.75;;;;;;;14.25;61.45;101374.47;5110642;28;20051;-63
2022/09/17 04:03:57;;;;;;;11.10;2.45;;;;;;;14.25;61.24;101380.69;5121680;28;20047;-63
2022/09/17 04:06:25;;;;;;;9.20;1.80;;;;;;;14.25;60.94;101371.75;5107988;28;20127;-63
2022/09/17 04:08:52;;;;;;;4.55;1.67;;;;;;;14.25;60.80;101371.75;5110035;28;20044;-63
2022/09/17 04:11:20;;;;;;;9.48;2.28;;;;;;;14.23;60.76;101376.56;5128635;28;20043;-63
2022/09/17 04:13:49;;;;;;;5.40;1.35;;;;;;;14.24;61.05;101380.94;5115488;28;20050;-63
2022/09/17 04:16:17;;;;;;;8.20;1.92;;;;;;;14.24;61.17;101386.34;5125482;28;20043;-63
2022/09/17 04:18:45;;;;;;;6.53;1.55;;;;;;;14.23;60.98;101388.22;5120025;28;20097;-63
2022/09/17 04:21:13;;;;;;;8.25;1.58;;;;;;;14.20;60.94;101387.84;5107483;28;20048;-63
2022/09/17 04:23:40;;;;;;;6.72;2.55;;;;;;;14.23;60.94;101387.38;5108711;28;20480;-63
2022/09/17 04:26:08;;;;;;;8.43;1.75;;;;;;;14.19;60.81;101384.31;5117144;28;20051;-63
2022/09/17 04:28:35;;;;;;;6.13;2.05;;;;;;;14.19;61.04;101386.22;5118536;28;20067;-63
2022/09/17 04:31:04;;;;;;;10.88;2.35;;;;;;;14.19;60.62;101389.72;5110687;27;20056;-63
2022/09/17 04:33:32;;;;;;;6.22;2.13;;;;;;;14.18;61.01;101390.78;5121968;28;20051;-63
2022/09/17 04:36:00;;;;;;;8.48;1.35;;;;;;;14.18;60.88;101387.25;5127350;27;20051;-63
2022/09/17 04:38:28;;;;;;;8.48;2.08;;;;;;;14.18;60.89;101385.38;5116375;28;20062;-63
2022/09/17 04:40:56;;;;;;;6.60;1.90;;;;;;;14.18;60.78;101385.38;5124168;27;20430;-63
2022/09/17 04:43:23;;;;;;;6.53;1.40;;;;;;;14.18;60.93;101392.66;5129124;27;20044;-63
2022/09/17 04:45:51;;;;;;;9.52;1.85;;;;;;;14.17;60.90;101385.63;5126238;28;20043;-63
2022/09/17 04:48:20;;;;;;;5.70;1.45;;;;;;;14.15;60.71;101390.44;5125496;27;20062;-63
2022/09/17 04:50:48;;;;;;;6.38;1.45;;;;;;;14.13;60.77;101395.25;5115358;28;20051;-63
2022/09/17 04:53:16;;;;;;;7.82;1.77;;;;;;;14.15;60.69;101393.94;5116347;28;20040;-63
2022/09/17 04:55:43;;;;;;;8.20;1.58;;;;;;;14.15;60.46;101412.06;5117200;28;20480;-63
2022/09/17 04:58:11;;;;;;;5.38;1.38;;;;;;;14.10;60.69;101420.03;4751351;28;9999783;-63
2022/09/17 05:00:41;;;;;;;6.20;1.70;;;;;;;14.09;61.32;101407.56;5111767;27;20058;-63
2022/09/17 05:03:09;;;;;;;5.22;1.45;;;;;;;14.08;60.75;101406.75;5111256;27;20056;-63
2022/09/17 05:05:38;;;;;;;4.53;1.77;;;;;;;14.07;61.30;101399.69;5112537;27;20048;-63
2022/09/17 05:08:07;;;;;;;6.18;1.92;;;;;;;14.05;61.24;101400.97;5107444;28;20876;-63
2022/09/17 05:10:34;;;;;;;6.60;1.95;;;;;;;14.05;60.92;101398.28;5112287;27;20079;-63
2022/09/17 05:13:03;;;;;;;6.10;1.77;;;;;;;14.02;61.33;101399.56;5115378;27;20064;-63
2022/09/17 05:15:31;;;;;;;5.65;1.70;;;;;;;13.99;61.05;101400.84;5113775;27;20229;-63
2022/09/17 05:17:58;;;;;;;7.18;1.98;;;;;;;13.99;61.21;101410.84;5114417;27;20062;-63
2022/09/17 05:20:26;;;;;;;5.72;1.50;;;;;;;13.99;61.67;101410.84;5113220;28;20107;-63
2022/09/17 05:22:55;;;;;;;5.72;2.13;;;;;;;14.01;61.59;101409.56;5122732;28;20062;-63
2022/09/17 05:25:23;;;;;;;7.20;1.55;;;;;;;14.03;61.03;101417.44;5113247;28;20056;-63
2022/09/17 05:27:52;;;;;;;5.15;1.55;;;;;;;14.05;61.54;101417.19;5114630;28;20040;-63
2022/09/17 05:30:20;;;;;;;7.80;1.88;;;;;;;14.05;61.43;101423.44;5119181;27;20726;-65
2022/09/17 05:32:48;;;;;;;5.38;1.88;;;;;;;14.05;61.21;101419.91;5114602;28;20063;-63
2022/09/17 05:35:16;;;;;;;8.40;1.88;;;;;;;14.01;61.27;101425.75;5116479;28;20047;-62
2022/09/17 05:37:44;;;;;;;5.53;1.92;;;;;;;14.02;61.49;101418.47;5106415;28;20051;-63
2022/09/17 05:40:13;;;;;;;9.57;1.90;;;;;;;14.04;61.47;101432.59;5112780;28;20039;-63
2022/09/17 05:42:40;;;;;;;6.72;1.30;;;;;;;14.04;61.25;101434.47;5120881;27;20047;-62
2022/09/17 05:45:09;;;;;;;6.38;2.72;;;;;;;14.02;61.26;101432.81;5124948;27;20057;-63
2022/09/17 05:47:36;;;;;;;9.52;1.40;;;;;;;14.02;61.40;101432.81;5108897;28;20047;-63
2022/09/17 05:50:05;;;;;;;5.35;1.35;;;;;;;13.93;61.44;101415.28;5111495;28;20050;-63
2022/09/17 05:52:32;;;;;;;10.00;2.67;;;;;;;14.00;61.38;101426.00;5114002;27;20055;-62
2022/09/17 05:55:00;;;;;;;4.70;1.83;;;;;;;14.00;61.39;101432.22;5120594;27;20082;-61
2022/09/17 05:57:30;;;;;;;5.80;1.90;;;;;;;14.01;61.39;101436.56;5112873;28;20052;-63
2022/09/17 05:59:57;;;;;;;9.95;1.65;;;;;;;14.00;61.47;101432.22;5112074;28;20052;-63
2022/09/17 06:02:25;;;;;;;5.63;1.73;;;;;;;14.01;61.35;101438.47;5115368;27;20497;-63
2022/09/17 06:04:53;;;;;;;7.18;2.33;;;;;;;14.00;61.47;101440.34;5111798;28;20059;-62
2022/09/17 06:07:20;;;;;;;6.03;1.60;;;;;;;13.99;61.68;101445.97;5113530;27;20048;-63
2022/09/17 06:09:48;;;;;;;4.70;1.50;;;;;;;13.99;61.64;101452.19;5115125;28;20040;-62
2022/09/17 06:12:16;;;;;;;7.03;1.90;;;;;;;13.99;61.74;101462.19;5127369;27;20051;-62
2022/09/17 06:14:45;;;;;;;5.13;1.90;;;;;;;13.98;62.08;101471.34;5110511;27;20058;-66
2022/09/17 06:17:12;;;;;;;16.45;2.72;;;;;;;13.81;63.10;101463.09;5113874;27;20044;-63
2022/09/17 06:19:40;;;;;;;13.43;2.38;;;;;;;13.72;63.15;101463.63;5124321;27;20066;-64
2022/09/17 06:22:08;;;;;;;7.40;1.70;;;;;;;13.78;63.08;101468.94;5115325;27;20055;-62
2022/09/17 06:24:35;;;;;;;9.88;2.92;;;;;;;13.77;62.56;101479.97;5110604;27;20048;-63
2022/09/17 06:27:03;;;;;;;7.75;1.90;;;;;;;13.75;62.70;101480.19;5117625;27;20054;-63
2022/09/17 06:29:31;;;;;;;9.68;2.10;;;;;;;13.76;62.08;101479.16;5118030;28;20047;-67
2022/09/17 06:32:01;;;;;;;13.80;2.58;;;;;;;13.76;62.01;101473.75;5119593;28;20055;-63
2022/09/17 06:34:29;;;;;;;7.47;1.92;;;;;;;13.74;62.21;101456.13;5126465;27;20051;-63
2022/09/17 06:36:56;;;;;;;8.32;2.58;;;;;;;13.86;61.87;101474.03;5134214;27;20074;-65
2022/09/17 06:39:24;;;;;;;12.85;2.40;;;;;;;13.84;61.76;101459.91;5123884;27;20043;-62
2022/09/17 06:41:52;;;;;;;10.10;2.05;;;;;;;13.77;62.64;101463.75;5127715;27;20043;-64
2022/09/17 06:44:19;;;;;;;5.50;2.03;;;;;;;13.66;63.24;101460.78;5132174;27;20047;-64
2022/09/17 06:46:49;;;;;;;12.55;2.33;;;;;;;13.62;63.39;101470.38;5130947;27;20051;-65
2022/09/17 06:49:19;;;;;;;12.50;1.77;;;;;;;13.66;62.91;101457.25;5126997;27;20067;-64
2022/09/17 06:51:46;;;;;;;10.73;1.95;;;;;;;13.74;62.82;101464.22;5125890;27;20157;-65
2022/09/17 06:54:14;;;;;;;9.05;1.80;;;;;;;13.77;62.41;101455.66;5127024;27;20051;-64
2022/09/17 06:56:42;;;;;;;11.75;2.60;;;;;;;13.78;62.29;101465.41;5130884;27;20051;-64
2022/09/17 06:59:09;;;;;;;4.82;1.67;;;;;;;13.77;62.50;101458.34;5132805;27;20055;-65
2022/09/17 07:01:37;;;;;;;9.65;1.92;;;;;;;13.74;62.18;101462.34;5129293;27;20043;-64
2022/09/17 07:04:05;;;;;;;6.88;2.15;;;;;;;13.71;62.50;101452.00;5122099;27;20056;-64
2022/09/17 07:06:34;;;;;;;8.25;2.03;;;;;;;13.75;62.24;101457.75;5132736;27;20481;-64
2022/09/17 07:09:02;;;;;;;4.47;1.45;;;;;;;13.78;62.16;101458.13;5132292;27;20055;-65
2022/09/17 07:11:34;;;;;;;8.50;2.00;;;;;;;13.83;62.25;101454.75;5127260;27;20044;-65
2022/09/17 07:14:03;;;;;;;10.90;3.10;;;;;;;13.86;62.21;101457.81;5134222;27;20468;-64
2022/09/17 07:16:31;;;;;;;6.88;1.95;;;;;;;13.88;62.23;101463.78;5135420;27;20142;-64
2022/09/17 07:18:59;;;;;;;6.63;1.70;;;;;;;13.91;61.69;101465.22;5130837;27;20047;-65
2022/09/17 07:21:27;;;;;;;9.10;2.08;;;;;;;13.91;61.74;101473.31;5135676;27;20054;-64
2022/09/17 07:23:56;;;;;;;5.88;2.05;;;;;;;13.89;61.81;101467.31;5135330;27;20051;-64
2022/09/17 07:26:24;;;;;;;6.57;1.88;;;;;;;13.89;62.33;101470.00;5137829;27;20043;-65
2022/09/17 07:28:52;;;;;;;5.53;1.63;;;;;;;13.91;62.43;101470.59;5122370;27;20048;-65
2022/09/17 07:31:19;;;;;;;7.43;1.65;;;;;;;13.92;61.83;101472.25;5123117;28;20063;-64
2022/09/17 07:33:47;;;;;;;11.65;2.17;;;;;;;13.94;62.34;101468.28;5125875;27;20089;-64
2022/09/17 07:36:16;;;;;;;7.25;2.13;;;;;;;13.96;62.49;101471.56;5137296;27;20051;-64
2022/09/17 07:38:44;;;;;;;9.43;2.70;;;;;;;13.97;62.20;101478.63;5130661;27;20063;-64
2022/09/17 07:41:15;;;;;;;7.75;1.50;;;;;;;13.98;62.20;101469.47;5138606;27;20043;-66
2022/09/17 07:43:43;;;;;;;8.40;1.83;;;;;;;13.99;62.59;101476.53;5127285;27;20517;-64
2022/09/17 07:46:17;;;;;;;9.50;2.20;;;;;;;13.99;62.18;101468.41;5129624;27;20309;-66
2022/09/17 07:48:45;;;;;;;7.47;2.10;;;;;;;13.97;62.53;101472.41;5126646;27;20104;-64
2022/09/17 07:51:17;;;;;;;8.73;1.70;;;;;;;13.90;62.48;101468.97;5126836;27;20054;-65
2022/09/17 07:53:46;;;;;;;7.13;1.95;;;;;;;13.84;62.71;101462.63;5118605;27;20043;-65
2022/09/17 07:56:15;;;;;;;7.25;1.52;;;;;;;13.83;62.95;101473.66;5129439;27;20074;-64
2022/09/17 07:58:43;;;;;;;6.75;1.83;;;;;;;13.85;62.95;101472.38;5117828;28;20039;-65
2022/09/17 08:01:14;;;;;;;6.80;1.58;;;;;;;13.87;62.58;101472.13;5129911;28;20050;-62
2022/09/17 08:03:43;;;;;;;7.75;1.20;;;;;;;13.87;62.60;101470.25;5117491;28;20305;-62
2022/09/17 08:06:12;;;;;;;6.50;1.45;;;;;;;13.87;62.73;101466.72;5133399;28;20059;-64
2022/09/17 08:08:41;;;;;;;8.73;1.65;;;;;;;13.89;62.60;101467.31;5114129;28;20054;-63
2022/09/17 08:11:10;;;;;;;4.70;1.35;;;;;;;13.89;62.94;101473.53;5114428;28;20054;-63
2022/09/17 08:13:40;;;;;;;6.07;1.52;;;;;;;13.90;62.99;101477.91;5118747;28;20048;-64
2022/09/17 08:16:11;;;;;;;5.30;1.75;;;;;;;13.92;63.16;101473.09;5132645;28;20508;-61
2022/09/17 08:18:40;;;;;;;9.23;1.52;;;;;;;13.93;62.50;101487.41;5113221;28;20043;-61
2022/09/17 08:21:10;;;;;;;3.78;1.33;;;;;;;13.94;62.75;101478.25;5115459;28;20052;-63
2022/09/17 08:23:40;;;;;;;5.28;1.95;;;;;;;13.96;62.52;101476.97;5124307;28;20046;-60
2022/09/17 08:26:11;;;;;;;7.65;1.70;;;;;;;13.95;62.86;101469.91;5109255;28;20056;-61
2022/09/17 08:28:46;;;;;;;6.15;1.73;;;;;;;14.01;63.17;101474.41;5119090;28;20119;-62
2022/09/17 08:31:15;;;;;;;9.52;1.65;;;;;;;14.06;63.50;101478.31;5103905;28;20044;-62
2022/09/17 08:33:43;;;;;;;5.00;1.50;;;;;;;14.06;63.23;101478.31;5116855;28;20102;-62
2022/09/17 08:36:12;;;;;;;4.35;1.40;;;;;;;14.07;62.76;101475.38;5122473;28;20057;-63
2022/09/17 08:38:40;;;;;;;8.82;1.70;;;;;;;14.05;62.61;101472.06;5121860;28;20067;-62
2022/09/17 08:41:20;;;;;;;5.97;1.55;;;;;;;14.06;62.54;101483.72;5116838;28;20055;-63
2022/09/17 08:43:58;;;;;;;6.07;1.40;;;;;;;14.05;62.94;101488.28;5122200;28;20043;-64
2022/09/17 08:46:27;;;;;;;6.93;1.20;;;;;;;14.05;62.73;101474.78;5111527;28;20063;-63
2022/09/17 08:49:05;;;;;;;5.15;1.52;;;;;;;14.05;62.60;101479.34;5119715;28;20035;-63
2022/09/17 08:51:42;;;;;;;5.65;1.83;;;;;;;14.06;62.64;101483.72;5113884;28;20046;-64
2022/09/17 08:54:14;;;;;;;;;;;;;;;14.06;62.83;101489.94;5105680;28;20047;-63
2022/09/17 08:56:43;;;;;;;;;;;;;;;14.07;62.94;101479.97;4762609;28;9999774;-64
2022/09/17 08:59:17;;;;;;;;;;;;;;;14.08;62.63;101485.13;5113262;28;19920;-63
2022/09/17 09:01:53;;;;;;;;;;;;;;;14.10;62.83;101490.31;5113509;28;19932;-63
2022/09/17 09:04:39;;;;;;;;;;;;;;;14.11;62.63;101484.69;5119439;28;19920;-63
2022/09/17 09:07:08;;;;;;;;;;;;;;;14.11;62.25;101487.38;5120548;28;19927;-63
2022/09/17 09:09:37;;;;;;;;;;;;;;;14.11;62.09;101484.69;5114549;28;19926;-63
2022/09/17 09:12:07;;;;;;;;;;;;;;;14.11;61.76;101492.78;5114259;28;19985;-63
2022/09/17 09:14:39;;;;;;;;;;;;;;;14.12;61.83;101489.03;5114813;28;19920;-65
2022/09/17 09:17:08;;;;;;;;;;;;;;;14.12;61.67;101483.63;5118487;28;19920;-63
2022/09/17 09:19:41;;;;;;;;;;;;;;;14.15;61.42;101487.75;5116932;28;19920;-63
2022/09/17 09:22:15;;;;;;;;;;;;;;;14.17;61.46;101491.03;5123570;28;20361;-64
2022/09/17 09:24:45;;;;;;;;;;;;;;;14.25;61.39;101490.72;5116887;27;19947;-64
2022/09/17 09:27:16;;;;;;;;;;;;;;;14.23;61.76;101495.53;5128324;28;19934;-63
2022/09/17 09:29:55;;;;;;;;;;;;;;;14.22;61.44;101491.19;5121562;27;19923;-64
2022/09/17 09:32:32;;;;;;;;;;;;;;;14.23;61.36;101484.72;5117869;28;19930;-64
2022/09/17 09:35:02;;;;;;;;;;;;;;;14.22;61.44;101485.78;5118511;27;19923;-63
2022/09/17 09:37:31;;;;;;;;;;;;;;;14.22;61.74;101494.69;5126505;28;20429;-64
2022/09/17 09:40:03;;;;;;;;;;;;;;;14.24;61.35;101486.38;5121269;27;19931;-64
2022/09/17 09:42:32;;;;;;;;;;;;;;;14.24;61.54;101483.66;5126675;28;19937;-63
2022/09/17 09:45:03;;;;;;;;;;;;;;;14.24;61.34;101489.88;5118882;28;20234;-62
2022/09/17 09:47:41;;;;;;;;;;;;;;;14.33;61.41;101482.28;5124286;28;19958;-65
2022/09/17 09:50:18;;;;;;;;;;;;;;;14.33;61.38;101482.28;5121803;27;19927;-64
2022/09/17 09:52:51;;;;;;;;;;;;;;;14.36;60.94;101487.22;5115336;27;19978;-64
2022/09/17 09:55:32;;;;;;;;;;;;;;;14.34;61.48;101484.75;5126934;28;19919;-64
2022/09/17 09:58:05;;;;;;;;;;;;;;;14.39;60.61;101475.13;5117980;28;19919;-63
2022/09/17 10:00:36;;;;;;;;;;;;;;;14.41;60.98;101473.84;5132733;27;19919;-65
2022/09/17 10:03:09;;;;;;;;;;;;;;;14.43;61.01;101476.34;5119411;27;20315;-63
2022/09/17 10:05:37;;;;;;;;;;;;;;;14.47;60.92;101481.06;5123663;28;19920;-64
2022/09/17 10:08:10;;;;;;;;;;;;;;;14.50;60.83;101477.88;5120888;27;19920;-64
2022/09/17 10:10:53;;;;;;;;;;;;;;;14.60;60.86;101504.34;5125196;28;19920;-64
2022/09/17 10:13:20;;;;;;;;;;;;;;;14.56;61.66;101500.47;5124281;27;19931;-63
2022/09/17 10:15:49;;;;;;;;;;;;;;;14.51;62.24;101493.06;5126836;28;19927;-63
2022/09/17 10:18:18;;;;;;;;;;;;;;;14.48;62.96;101498.94;5115271;27;19997;-63
2022/09/17 10:20:50;;;;;;;;;;;;;;;14.46;63.50;101484.81;5119855;27;19926;-63
2022/09/17 10:23:17;;;;;;;;;;;;;;;14.45;63.47;101498.56;5125491;27;19928;-63
2022/09/17 10:25:45;;;;;;;;;;;;;;;14.45;63.56;101495.84;5124969;27;19933;-61
2022/09/17 10:28:25;;;;;;;;;;;;;;;14.44;63.34;101503.16;5113594;27;20396;-63
2022/09/17 10:30:58;;;;;;;;;;;;;;;14.43;63.41;101496.09;5124515;27;19930;-61
2022/09/17 10:33:27;;;;;;;;;;;;;;;14.45;63.46;101487.75;5126479;27;19933;-62
2022/09/17 10:35:58;;;;;;;;;;;;;;;14.45;63.27;101493.97;5125485;27;19923;-62
2022/09/17 10:38:27;;;;;;;;;;;;;;;14.45;63.72;101480.47;5123652;27;20264;-62
2022/09/17 10:41:07;;;;;;;;;;;;;;;14.47;63.62;101483.75;5119309;27;19926;-62
2022/09/17 10:43:35;;;;;;;;;;;;;;;14.49;63.79;101480.81;5120625;27;19920;-62
2022/09/17 10:46:04;;;;;;;;;;;;;;;14.51;64.29;101476.81;5116771;27;19920;-62
2022/09/17 10:48:33;;;;;;;;;;;;;;;14.52;64.41;101481.19;5125912;27;19919;-62
2022/09/17 10:51:02;;;;;;;;;;;;;;;14.53;64.03;101490.13;5119259;27;19923;-62
2022/09/17 10:53:29;;;;;;;;;;;;;;;14.54;63.64;101497.19;5121245;27;19926;-62
2022/09/17 10:56:09;;;;;;;;;;;;;;;14.55;63.72;101501.53;5121430;28;19930;-61
2022/09/17 10:58:47;;;;;;;;;;;;;;;14.55;63.68;101502.34;5120980;28;19943;-61
2022/09/17 11:01:24;;;;;;;;;;;;;;;14.53;63.54;101488.22;5117208;28;19932;-61
2022/09/17 11:03:59;;;;;;;;;;;;;;;14.53;63.25;101490.13;5113796;28;19920;-61
2022/09/17 11:06:47;;;;;;;;;;;;;;;14.54;63.20;101489.88;5118591;27;19919;-62
2022/09/17 11:09:20;;;;;;;;;;;;;;;14.54;63.04;101486.34;5114103;28;19927;-61
2022/09/17 11:11:54;;;;;;;;;;;;;;;14.55;62.81;101483.41;5120396;28;20393;-61
2022/09/17 11:14:34;;;;;;;;;;;;;;;14.54;62.87;101476.34;5116153;28;19924;-64
2022/09/17 11:17:06;;;;;;;;;;;;;;;14.56;62.54;101489.66;4761919;28;9999852;-62
2022/09/17 11:19:38;;;;;;;;;;;;;;;14.55;62.55;101478.00;5110722;28;19920;-62
2022/09/17 11:22:12;;;;;;;;;;;;;;;14.56;62.76;101482.34;5115875;28;19926;-62
2022/09/17 11:24:53;;;;;;;;;;;;;;;14.56;62.61;101487.78;5117348;27;19920;-62
2022/09/17 11:27:34;;;;;;;;;;;;;;;14.57;62.66;101481.31;5120678;28;19953;-62
2022/09/17 11:30:09;;;;;;;;;;;;;;;14.57;62.70;101478.59;5119398;27;19924;-62
2022/09/17 11:32:52;;;;;;;;;;;;;;;14.58;62.87;101480.25;5133676;27;19919;-62
2022/09/17 11:35:21;;;;;;;;;;;;;;;14.60;62.88;101477.31;5119903;28;20416;-61
2022/09/17 11:37:52;;;;;;;;;;;;;;;14.62;62.67;101480.59;5118026;27;19919;-62
2022/09/17 11:40:37;;;;;;;;;;;;;;;14.61;62.73;101477.06;5110705;27;19927;-62
2022/09/17 11:43:12;;;;;;;;;;;;;;;14.61;62.85;101479.78;5116424;28;19958;-63
2022/09/17 11:45:41;;;;;;;;;;;;;;;14.62;62.73;101486.84;5121916;27;19926;-62
2022/09/17 11:48:12;;;;;;;;;;;;;;;14.62;62.58;101476.03;5118896;28;19938;-62
2022/09/17 11:50:41;;;;;;;;;;;;;;;14.65;62.85;101474.72;5119375;28;19920;-64
2022/09/17 11:53:14;;;;;;;;;;;;;;;14.69;62.94;101472.38;5118799;28;19930;-64
2022/09/17 11:55:46;;;;;;;;;;;;;;;14.70;62.82;101482.16;5113644;28;19931;-62
2022/09/17 11:58:15;;;;;;;;;;;;;;;14.71;62.74;101487.31;5112387;28;19926;-63
2022/09/17 12:00:45;;;;;;;;;;;;;;;14.73;62.86;101481.69;5111537;28;20289;-65